Home   Weather   USA   Ferndale   Past weeks
Flag for USA

Past Weather in Ferndale, Michigan, USA — Yesterday and Last 2 Weeks

Currently: 46 °F. Passing clouds. (Weather station: Troy, Oakland/Troy Airport, USA). See more current weather

Past Weather in Ferndale — Graph

°F

Ferndale Temperature Yesterday

Maximum temperature yesterday: 61 °F (at 2:35 pm)
Minimum temperature yesterday: 37 °F (at 6:35 am)
Average temperature yesterday: 48 °F

High & Low Weather Summary for the Past Weeks

 TemperatureHumidityPressure
High61 °F (Nov 26, 2:35 pm)89% (Nov 15, 9:15 pm)30.42 "Hg (Nov 15, 9:15 pm)
Low21 °F (Nov 20, 7:15 am)19% (Nov 22, 3:15 pm)29.63 "Hg (Nov 27, 5:55 am)
Average40 °F58%30.12 "Hg
* Reported Nov 12 6:15 am — Nov 27 6:15 am, Ferndale. Weather by CustomWeather, © 2022

Note: Actual official high and low records may vary slightly from our data, if they occured in-between our weather recording intervals... More about our weather records

Ferndale Weather History for the Previous 24 Hours

Scroll right to see more
 ConditionsComfort  
Time TempWeatherWind HumidityBarometerVisibility
6:15 am
Sun, Nov 27
46 °FPassing clouds.3 mph54%29.63 "Hg10 mi
5:55 am46 °FPassing clouds.3 mph53%29.63 "Hg10 mi
5:35 am46 °FOvercast.7 mph52%29.65 "Hg10 mi
5:15 am46 °FOvercast.5 mph52%29.65 "Hg10 mi
4:55 am45 °FPassing clouds.3 mph53%29.68 "Hg10 mi
4:35 am45 °FPassing clouds.No wind55%29.70 "Hg10 mi
4:15 am45 °FPassing clouds.No wind55%29.72 "Hg10 mi
3:55 am44 °FClear.No wind57%29.73 "Hg10 mi
3:35 am44 °FClear.No wind55%29.75 "Hg10 mi
3:15 am44 °FClear.No wind55%29.76 "Hg10 mi
2:35 am45 °FClear.No wind52%29.78 "Hg10 mi
2:15 am46 °FClear.No wind47%29.79 "Hg10 mi
1:55 am46 °FClear.No wind46%29.79 "Hg10 mi
1:35 am46 °FClear.No wind46%29.79 "Hg10 mi
1:15 am46 °FClear.3 mph46%29.80 "Hg10 mi
12:35 am47 °FClear.5 mph45%29.82 "Hg10 mi
12:15 am47 °FClear.5 mph45%29.82 "Hg10 mi
11:55 pm
Sat, Nov 26
47 °FClear.5 mph44%29.82 "Hg10 mi
11:35 pm48 °FClear.3 mph43%29.83 "Hg10 mi
11:15 pm48 °FClear.6 mph43%29.85 "Hg10 mi
10:55 pm48 °FClear.5 mph42%29.86 "Hg10 mi
10:35 pm48 °FClear.7 mph42%29.87 "Hg10 mi
10:15 pm49 °FClear.7 mph42%29.88 "Hg10 mi
9:35 pm49 °FClear.6 mph41%29.90 "Hg10 mi
9:15 pm49 °FClear.6 mph41%29.90 "Hg10 mi
8:55 pm50 °FClear.5 mph40%29.91 "Hg10 mi
8:35 pm50 °FClear.5 mph39%29.91 "Hg10 mi
8:15 pm51 °FClear.7 mph38%29.92 "Hg10 mi
7:55 pm51 °FClear.7 mph38%29.93 "Hg10 mi
6:35 pm53 °FClear.7 mph34%29.94 "Hg10 mi
6:15 pm54 °FClear.8 mph33%29.95 "Hg10 mi
5:55 pm54 °FClear.7 mph32%29.95 "Hg10 mi
5:15 pm56 °FClear.9 mph31%29.93 "Hg10 mi
4:55 pm57 °FSunny.7 mph29%29.95 "Hg10 mi
4:35 pm58 °FSunny.7 mph28%29.95 "Hg10 mi
4:15 pm59 °FSunny.10 mph27%29.95 "Hg10 mi
3:55 pm60 °FSunny.9 mph24%29.95 "Hg10 mi
3:35 pm61 °FSunny.14 mph21%29.96 "Hg10 mi
3:15 pm61 °FSunny.10 mph23%29.97 "Hg10 mi
2:35 pm61 °FSunny.13 mph22%29.96 "Hg10 mi
2:15 pm61 °FSunny.12 mph23%29.95 "Hg10 mi
1:55 pm60 °FSunny.10 mph27%29.95 "Hg10 mi
1:35 pm59 °FSunny.9 mph28%29.97 "Hg10 mi
1:15 pm59 °FSunny.9 mph30%29.98 "Hg10 mi
12:55 pm58 °FSunny.8 mph33%29.99 "Hg10 mi
12:35 pm57 °FSunny.10 mph35%30.00 "Hg10 mi
12:15 pm55 °FSunny.8 mph39%30.02 "Hg10 mi
11:55 am53 °FSunny.10 mph42%30.02 "Hg10 mi
11:35 am52 °FSunny.9 mph45%30.04 "Hg10 mi
11:15 am50 °FSunny.7 mph49%30.05 "Hg10 mi
10:55 am49 °FSunny.9 mph51%30.06 "Hg10 mi
10:35 am47 °FSunny.8 mph55%30.07 "Hg10 mi
10:15 am46 °FSunny.9 mph61%30.07 "Hg10 mi
9:35 am42 °FSunny.10 mph69%30.07 "Hg10 mi
9:15 am41 °FSunny.8 mph73%30.07 "Hg10 mi
8:15 am38 °FSunny.7 mph80%30.09 "Hg10 mi
7:35 am37 °FClear.7 mph82%30.10 "Hg10 mi
7:15 am37 °FClear.6 mph81%30.10 "Hg10 mi
Weather by CustomWeather, © 2022

See weather overview